Telluride, CO

2:15 PM MDT on June 27, 2017 (GMT -0600)
Telluride Regional

Weather History for KTEX - March, 2013

Change the Weather History Date:

Wednesday, March 6, 2013

  Actual Average Record
Temperature  
Mean Temperature 42 °F -  
Max Temperature 48 °F 35 °F 51 °F (2006)
Min Temperature 35 °F 15 °F 3 °F (2008)
Degree Days  
Heating Degree Days 24    
Moisture  
Dew Point 11 °F    
Average Humidity 31    
Maximum Humidity 48    
Minimum Humidity 16    
Precipitation  
Precipitation 0.00 in - - ()
Sea Level Pressure  
Sea Level Pressure 30.10 in    
Wind  
Wind Speed 11 mph (SE)    
Max Wind Speed 18 mph    
Max Gust Speed 34 mph    
Visibility 10 miles    
Events      
Averages and records for this station are not official NWS values.
T = Trace of Precipitation, MM = Missing Value Source: NWS Daily Summary

Daily Weather History Graph

Daily Weather History Graph

Search for Another Location

Airport or City:

Trip Planner

Search our weather history database for the weather conditions in past years. The results will help you decide how hot, cold, wet, or windy it might be!

Date:

Astronomy

Mar. 06, 2013 Rise Set
Actual Time 6:35 AM MST 6:10 PM MST
Civil Twilight 6:09 AM MST 6:36 PM MST
Nautical Twilight 5:39 AM MST 7:07 PM MST
Astronomical Twilight 5:08 AM MST 7:37 PM MST
Moon 2:43 AM MST (3/6) 12:59 PM MST (3/6)
Length of Visible Light 12h 27m
Length of Day
11h 34m
Waning Crescent, 29% of the Moon is Illuminated
Mar 6
Waning Crescent
Mar 11
New
Mar 19
First Quarter
Mar 27
Full
Apr 2
Last Quarter

Hourly Weather History & Observations

Time (MST) Temp. Windchill Dew Point Humidity Pressure Visibility Wind Dir Wind Speed Gust Speed Precip Events Conditions
12:15 AM 35.6 °F 25.9 °F 5.0 °F 28% 30.19 in 10.0 mi SE 16.1 mph 29.9 mph N/A   Clear
12:35 AM 35.6 °F 25.2 °F 6.8 °F 30% 30.20 in 10.0 mi ESE 18.4 mph 34.5 mph N/A   Clear
12:55 AM 35.6 °F 27.1 °F 5.0 °F 28% 30.20 in 10.0 mi ESE 12.7 mph 25.3 mph N/A   Clear
1:15 AM 35.6 °F 29.2 °F 8.6 °F 33% 30.19 in 10.0 mi East 8.1 mph - N/A   Clear
1:35 AM 35.6 °F 28.6 °F 8.6 °F 33% 30.18 in 10.0 mi East 9.2 mph 23.0 mph N/A   Clear
1:55 AM 35.6 °F 28.6 °F 8.6 °F 33% 30.18 in 10.0 mi East 9.2 mph 17.3 mph N/A   Clear
2:15 AM 37.4 °F 28.9 °F 10.4 °F 33% 30.18 in 10.0 mi ESE 13.8 mph 25.3 mph N/A   Clear
2:35 AM 37.4 °F 29.8 °F 12.2 °F 36% 30.17 in 10.0 mi SE 11.5 mph 20.7 mph N/A   Clear
2:55 AM 37.4 °F 30.3 °F 12.2 °F 36% 30.16 in 10.0 mi SSE 10.4 mph 19.6 mph N/A   Clear
3:15 AM 37.4 °F 30.8 °F 12.2 °F 36% 30.15 in 10.0 mi SE 9.2 mph 17.3 mph N/A   Clear
3:35 AM 35.6 °F 29.2 °F 12.2 °F 38% 30.14 in 10.0 mi SSE 8.1 mph - N/A   Clear
3:55 AM 35.6 °F 31.7 °F 12.2 °F 38% 30.14 in 10.0 mi SE 4.6 mph - N/A   Clear
4:55 AM 37.4 °F - 12.2 °F 36% 30.14 in 10.0 mi Calm Calm - N/A   Clear
5:15 AM 37.4 °F 33.8 °F 12.2 °F 36% 30.14 in 10.0 mi East 4.6 mph - N/A   Clear
5:35 AM 37.4 °F - 12.2 °F 36% 30.14 in 10.0 mi Calm Calm - N/A   Clear
5:55 AM 35.6 °F 30.7 °F 14.0 °F 41% 30.14 in 10.0 mi SE 5.8 mph - N/A   Clear
6:15 AM 35.6 °F - 14.0 °F 41% 30.14 in 10.0 mi Calm Calm - N/A   Clear
6:35 AM 35.6 °F 28.6 °F 15.8 °F 44% 30.14 in 10.0 mi SE 9.2 mph - N/A   Clear
6:55 AM 35.6 °F - 17.6 °F 48% 30.14 in 10.0 mi Calm Calm - N/A   Clear
7:15 AM 37.4 °F - 17.6 °F 45% 30.14 in 10.0 mi Calm Calm - N/A   Clear
7:35 AM 37.4 °F 29.8 °F 17.6 °F 45% 30.13 in 10.0 mi SE 11.5 mph - N/A   Clear
7:55 AM 37.4 °F 30.3 °F 17.6 °F 45% 30.14 in 10.0 mi SE 10.4 mph 20.7 mph N/A   Clear
8:15 AM 37.4 °F 29.3 °F 17.6 °F 45% 30.14 in 10.0 mi SSE 12.7 mph 20.7 mph N/A   Clear
8:35 AM 39.2 °F 31.2 °F 17.6 °F 42% 30.14 in 10.0 mi SE 13.8 mph 21.9 mph N/A   Clear
8:55 AM 41.0 °F 33.5 °F 17.6 °F 39% 30.14 in 10.0 mi ESE 13.8 mph 20.7 mph N/A   Clear
9:15 AM 41.0 °F 33.5 °F 15.8 °F 36% 30.14 in 10.0 mi ESE 13.8 mph 23.0 mph N/A   Scattered Clouds
9:35 AM 41.0 °F 35.2 °F 15.8 °F 36% 30.14 in 10.0 mi ESE 9.2 mph 21.9 mph N/A   Mostly Cloudy
9:55 AM 42.8 °F 37.5 °F 14.0 °F 31% 30.14 in 10.0 mi ESE 9.2 mph - N/A   Overcast
10:15 AM 42.8 °F 35.8 °F 14.0 °F 31% 30.12 in 10.0 mi SSE 13.8 mph 21.9 mph N/A   Scattered Clouds
10:35 AM 42.8 °F 35.4 °F 14.0 °F 31% 30.12 in 10.0 mi ESE 15.0 mph 24.2 mph N/A   Clear
10:55 AM 42.8 °F 37.5 °F 12.2 °F 29% 30.12 in 10.0 mi SE 9.2 mph 19.6 mph N/A   Clear
11:15 AM 44.6 °F 40.7 °F 12.2 °F 27% 30.12 in 10.0 mi South 6.9 mph 16.1 mph N/A   Clear
11:35 AM 44.6 °F 41.4 °F 12.2 °F 27% 30.10 in 10.0 mi ESE 5.8 mph 17.3 mph N/A   Clear
11:55 AM 44.6 °F 39.2 °F 14.0 °F 29% 30.09 in 10.0 mi South 10.4 mph - N/A   Clear
12:15 PM 44.6 °F 43.1 °F 12.2 °F 27% 30.09 in 10.0 mi West 3.5 mph - N/A   Clear
12:35 PM 46.4 °F 41.1 °F 12.2 °F 25% 30.09 in 10.0 mi SW 11.5 mph 17.3 mph N/A   Clear
12:55 PM 46.4 °F - 12.2 °F 25% 30.08 in 10.0 mi Calm Calm - N/A   Clear
1:15 PM 44.6 °F 40.7 °F 14.0 °F 29% 30.07 in 10.0 mi SE 6.9 mph - N/A   Scattered Clouds
1:35 PM 44.6 °F 41.4 °F 12.2 °F 27% 30.06 in 10.0 mi SSE 5.8 mph - N/A   Scattered Clouds
1:55 PM 46.4 °F 40.1 °F 6.8 °F 20% 30.04 in 10.0 mi SE 15.0 mph 25.3 mph N/A   Clear
2:15 PM 46.4 °F 41.5 °F 5.0 °F 18% 30.04 in 10.0 mi SSW 10.4 mph - N/A   Clear
2:35 PM 46.4 °F 41.9 °F 3.2 °F 17% 30.04 in 10.0 mi SSW 9.2 mph - N/A   Clear
2:55 PM 48.2 °F - 3.2 °F 16% 30.05 in 10.0 mi West 6.9 mph - N/A   Clear
3:15 PM 46.4 °F 40.7 °F 5.0 °F 18% 30.06 in 10.0 mi West 12.7 mph 19.6 mph N/A   Scattered Clouds
3:35 PM 46.4 °F 41.5 °F 5.0 °F 18% 30.06 in 10.0 mi SW 10.4 mph 18.4 mph N/A   Scattered Clouds
3:55 PM 44.6 °F 37.8 °F 1.4 °F 17% 30.05 in 10.0 mi SSW 15.0 mph 23.0 mph N/A   Scattered Clouds
4:15 PM 44.6 °F 37.8 °F 5.0 °F 20% 30.06 in 10.0 mi WSW 15.0 mph 19.6 mph N/A   Clear
4:35 PM 44.6 °F 39.7 °F 8.6 °F 23% 30.05 in 10.0 mi SW 9.2 mph 18.4 mph N/A   Clear
4:55 PM 44.6 °F 38.8 °F 6.8 °F 21% 30.05 in 10.0 mi SE 11.5 mph 17.3 mph N/A   Clear
5:15 PM 42.8 °F 34.5 °F 10.4 °F 27% 30.05 in 10.0 mi SSE 18.4 mph 24.2 mph N/A   Scattered Clouds
5:35 PM 42.8 °F 35.8 °F 10.4 °F 27% 30.05 in 10.0 mi SSE 13.8 mph 20.7 mph N/A   Scattered Clouds
5:55 PM 41.0 °F 34.3 °F 10.4 °F 29% 30.06 in 10.0 mi SE 11.5 mph - N/A   Clear
6:15 PM 41.0 °F 34.3 °F 12.2 °F 31% 30.06 in 10.0 mi SSE 11.5 mph 18.4 mph N/A   Clear
6:35 PM 41.0 °F 34.7 °F 12.2 °F 31% 30.06 in 10.0 mi SSE 10.4 mph 16.1 mph N/A   Clear
6:55 PM 41.0 °F 33.5 °F 12.2 °F 31% 30.05 in 10.0 mi SE 13.8 mph 18.4 mph N/A   Clear
7:15 PM 41.0 °F 35.2 °F 12.2 °F 31% 30.06 in 10.0 mi SE 9.2 mph - N/A   Clear
7:35 PM 41.0 °F 34.3 °F 12.2 °F 31% 30.07 in 10.0 mi SE 11.5 mph 17.3 mph N/A   Clear
7:55 PM 41.0 °F 34.3 °F 12.2 °F 31% 30.07 in 10.0 mi SE 11.5 mph 17.3 mph N/A   Clear
8:15 PM 41.0 °F 34.7 °F 12.2 °F 31% 30.07 in 10.0 mi SE 10.4 mph 19.6 mph N/A   Clear
8:35 PM 41.0 °F 36.4 °F 12.2 °F 31% 30.07 in 10.0 mi SE 6.9 mph - N/A   Clear
8:55 PM 41.0 °F 36.4 °F 12.2 °F 31% 30.07 in 10.0 mi SE 6.9 mph 17.3 mph N/A   Clear
9:15 PM 41.0 °F 34.3 °F 12.2 °F 31% 30.07 in 10.0 mi SE 11.5 mph - N/A   Clear
9:35 PM 41.0 °F 34.3 °F 12.2 °F 31% 30.06 in 10.0 mi SSE 11.5 mph 21.9 mph N/A   Clear
9:55 PM 41.0 °F 37.1 °F 10.4 °F 29% 30.07 in 10.0 mi ESE 5.8 mph 16.1 mph N/A   Clear
10:15 PM 41.0 °F 33.9 °F 12.2 °F 31% 30.07 in 10.0 mi SE 12.7 mph 20.7 mph N/A   Clear
10:35 PM 41.0 °F 33.9 °F 10.4 °F 29% 30.06 in 10.0 mi ESE 12.7 mph 19.6 mph N/A   Clear
10:55 PM 41.0 °F 34.7 °F 10.4 °F 29% 30.05 in 10.0 mi SSE 10.4 mph 17.3 mph N/A   Clear
11:15 PM 41.0 °F 34.7 °F 10.4 °F 29% 30.06 in 10.0 mi SE 10.4 mph 20.7 mph N/A   Clear
11:35 PM 41.0 °F 33.5 °F 10.4 °F 29% 30.05 in 10.0 mi SSE 13.8 mph 20.7 mph N/A   Clear
11:55 PM 41.0 °F 33.1 °F 10.4 °F 29% 30.05 in 10.0 mi ESE 15.0 mph 23.0 mph N/A   Clear